Terminal Aerodrome Forecast
Issued by NWS

Home | Current Version | Previous Version | Text Only | Print | Product List | Glossary On
Versions: 1 2 3 4 5 6 7 8 9 10 11 12 13 14 15 16 17 18 19 20
000
FTUS43 KDLH 261721
TAFHYR
TAF
KHYR 261721Z 2618/2718 22005KT P6SM SCT050
     FM270900 VRB03KT 5SM BR BKN150
     FM271300 15004KT P6SM SCT030 OVC100=

USA.gov is the U.S. government's official web portal to all federal, state and local government web resources and services.